createdAt,value
2018-06-23T08:30:27.235Z,1018.30
2018-06-23T08:31:27.202Z,1018.27
2018-06-23T08:32:27.195Z,1018.24
2018-06-23T08:33:27.180Z,1018.29
2018-06-23T08:34:27.144Z,1018.31
2018-06-23T08:35:27.125Z,1018.29
2018-06-23T08:36:27.112Z,1018.31
2018-06-23T08:37:27.106Z,1018.32
2018-06-23T08:38:27.079Z,1018.35
2018-06-23T08:39:27.068Z,1018.36
2018-06-23T08:40:27.038Z,1018.40
2018-06-23T08:41:27.023Z,1018.34
2018-06-23T08:42:27.023Z,1018.37
2018-06-23T08:43:26.989Z,1018.34
2018-06-23T08:44:26.984Z,1018.33
2018-06-23T08:45:26.955Z,1018.32
2018-06-23T08:46:26.940Z,1018.31
2018-06-23T08:47:26.926Z,1018.30
2018-06-23T08:48:27.383Z,1018.29
2018-06-23T08:49:26.897Z,1018.32
2018-06-23T08:50:26.896Z,1018.31
2018-06-23T08:51:26.860Z,1018.32
2018-06-23T08:52:27.840Z,1018.32
2018-06-23T08:53:26.849Z,1018.33
2018-06-23T08:54:26.808Z,1018.34
2018-06-23T08:55:26.792Z,1018.35
2018-06-23T08:56:26.780Z,1018.37
2018-06-23T08:57:26.766Z,1018.40
2018-06-23T08:58:26.745Z,1018.32
2018-06-23T08:59:26.739Z,1018.36
2018-06-23T09:00:26.711Z,1018.38
2018-06-23T09:01:26.697Z,1018.35
2018-06-23T09:02:26.684Z,1018.35
2018-06-23T09:03:26.665Z,1018.36
2018-06-23T09:04:26.655Z,1018.39
2018-06-23T09:05:26.634Z,1018.38
2018-06-23T09:06:26.627Z,1018.39
2018-06-23T09:07:26.601Z,1018.44
2018-06-23T09:08:26.610Z,1018.43
2018-06-23T09:09:26.591Z,1018.49
2018-06-23T09:10:26.575Z,1018.47
2018-06-23T09:11:26.538Z,1018.51
2018-06-23T09:12:26.524Z,1018.41
2018-06-23T09:13:26.511Z,1018.40
2018-06-23T09:14:26.508Z,1018.41
2018-06-23T09:15:26.481Z,1018.43
2018-06-23T09:16:26.452Z,1018.48
2018-06-23T09:17:26.437Z,1018.50
2018-06-23T09:18:26.424Z,1018.52
2018-06-23T09:19:26.408Z,1018.53
2018-06-23T09:20:26.404Z,1018.54
2018-06-23T09:21:26.602Z,1018.52
2018-06-23T09:22:26.361Z,1018.56
2018-06-23T09:23:26.344Z,1018.53
2018-06-23T09:24:26.331Z,1018.58
2018-06-23T09:25:26.333Z,1018.54
2018-06-23T09:26:26.299Z,1018.51
2018-06-23T09:27:26.280Z,1018.56
2018-06-23T09:28:26.272Z,1018.48
2018-06-23T09:29:26.247Z,1018.43
2018-06-23T09:30:26.232Z,1018.50
2018-06-23T09:31:26.228Z,1018.51
2018-06-23T09:32:26.199Z,1018.50
2018-06-23T09:33:26.185Z,1018.50
2018-06-23T09:34:26.222Z,1018.58
2018-06-23T09:35:26.151Z,1018.57
2018-06-23T09:36:26.172Z,1018.62
2018-06-23T09:37:26.128Z,1018.59
2018-06-23T09:38:26.106Z,1018.57
2018-06-23T09:39:26.089Z,1018.54
2018-06-23T09:40:26.084Z,1018.53
2018-06-23T09:41:26.071Z,1018.54
2018-06-23T09:42:26.042Z,1018.48
2018-06-23T09:43:26.025Z,1018.48
2018-06-23T09:44:26.015Z,1018.46
2018-06-23T09:45:25.997Z,1018.49
2018-06-23T09:46:26.002Z,1018.42
2018-06-23T09:47:25.966Z,1018.44
2018-06-23T09:48:25.953Z,1018.49
2018-06-23T09:49:25.936Z,1018.46
2018-06-23T09:50:25.918Z,1018.43
2018-06-23T09:51:25.907Z,1018.42
2018-06-23T09:52:25.899Z,1018.42
2018-06-23T09:53:25.878Z,1018.38
2018-06-23T09:54:25.862Z,1018.35
2018-06-23T09:55:25.844Z,1018.34
2018-06-23T09:56:25.836Z,1018.26
2018-06-23T09:57:25.841Z,1018.28
2018-06-23T09:58:25.801Z,1018.29
2018-06-23T09:59:25.785Z,1018.34
2018-06-23T10:00:25.774Z,1018.38
2018-06-23T10:01:25.756Z,1018.28
2018-06-23T10:02:25.740Z,1018.29
2018-06-23T10:03:25.744Z,1018.27
2018-06-23T10:04:25.710Z,1018.26
2018-06-23T10:05:25.697Z,1018.25
2018-06-23T10:06:25.683Z,1018.27
2018-06-23T10:07:25.672Z,1018.26
2018-06-23T10:08:25.676Z,1018.27
2018-06-23T10:09:25.638Z,1018.21
2018-06-23T10:10:25.636Z,1018.18
2018-06-23T10:11:25.618Z,1018.20
2018-06-23T10:12:25.597Z,1018.18
2018-06-23T10:13:25.594Z,1018.21
2018-06-23T10:14:25.575Z,1018.18
2018-06-23T10:15:25.607Z,1018.17
2018-06-23T10:16:25.540Z,1018.20
2018-06-23T10:17:25.526Z,1018.21
2018-06-23T10:18:25.521Z,1018.16
2018-06-23T10:19:25.496Z,1018.22
2018-06-23T10:20:25.480Z,1018.25
2018-06-23T10:21:25.514Z,1018.25
2018-06-23T10:22:25.456Z,1018.31
2018-06-23T10:23:25.452Z,1018.28
2018-06-23T10:24:25.436Z,1018.29
2018-06-23T10:25:25.421Z,1018.31
2018-06-23T10:26:25.394Z,1018.33
2018-06-23T10:27:25.385Z,1018.30
2018-06-23T10:28:25.360Z,1018.30
2018-06-23T10:29:25.355Z,1018.29
2018-06-23T10:30:25.329Z,1018.26
2018-06-23T10:31:25.318Z,1018.23
2018-06-23T10:32:25.298Z,1018.25
2018-06-23T10:33:25.281Z,1018.22
2018-06-23T10:34:25.301Z,1018.27
2018-06-23T10:35:25.253Z,1018.22
2018-06-23T10:36:25.235Z,1018.22
2018-06-23T10:37:25.220Z,1018.20
2018-06-23T10:38:25.224Z,1018.22
2018-06-23T10:39:25.192Z,1018.20
2018-06-23T10:40:25.186Z,1018.23
2018-06-23T10:41:25.158Z,1018.22
2018-06-23T10:42:25.141Z,1018.14
2018-06-23T10:43:25.126Z,1018.14
2018-06-23T10:44:25.110Z,1018.31
2018-06-23T10:45:25.106Z,1018.33
2018-06-23T10:46:25.085Z,1018.33
2018-06-23T10:47:25.069Z,1018.39
2018-06-23T10:48:25.047Z,1018.34
2018-06-23T10:49:25.037Z,1018.37
2018-06-23T10:50:25.027Z,1018.34
2018-06-23T10:51:25.000Z,1018.27
2018-06-23T10:52:24.985Z,1018.30
2018-06-23T10:53:24.974Z,1018.29
2018-06-23T10:54:24.959Z,1018.26
2018-06-23T10:55:24.953Z,1018.31
2018-06-23T10:56:24.931Z,1018.13
2018-06-23T10:57:24.910Z,1018.15
2018-06-23T10:58:24.896Z,1017.99
2018-06-23T10:59:24.883Z,1017.99
2018-06-23T11:00:24.867Z,1018.02
2018-06-23T11:01:24.876Z,1017.99
2018-06-23T11:02:24.839Z,1017.94
2018-06-23T11:03:24.824Z,1017.94
2018-06-23T11:04:24.812Z,1017.95
2018-06-23T11:05:24.846Z,1017.97
2018-06-23T11:06:24.804Z,1017.97
2018-06-23T11:07:24.778Z,1017.99
2018-06-23T11:08:24.753Z,1017.97
2018-06-23T11:09:24.739Z,1017.97
2018-06-23T11:10:24.727Z,1018.00
2018-06-23T11:11:24.708Z,1018.03
2018-06-23T11:12:24.708Z,1017.99
2018-06-23T11:13:24.681Z,1018.04
2018-06-23T11:14:24.669Z,1018.03
2018-06-23T11:15:24.650Z,1018.07
2018-06-23T11:16:24.640Z,1018.09
2018-06-23T11:17:24.632Z,1018.08
2018-06-23T11:18:24.610Z,1018.09
2018-06-23T11:19:24.593Z,1018.09
2018-06-23T11:20:24.579Z,1018.07
2018-06-23T11:21:24.562Z,1018.02
2018-06-23T11:22:24.555Z,1018.09
2018-06-23T11:23:24.531Z,1018.10
2018-06-23T11:24:24.561Z,1018.02
2018-06-23T11:25:24.505Z,1018.05
2018-06-23T11:26:24.490Z,1018.09
2018-06-23T11:27:24.492Z,1018.06
2018-06-23T11:28:24.456Z,1018.10
2018-06-23T11:29:24.443Z,1018.11
2018-06-23T11:30:24.428Z,1018.10
2018-06-23T11:31:24.412Z,1018.11
2018-06-23T11:32:24.394Z,1018.15
2018-06-23T11:33:24.390Z,1018.17
2018-06-23T11:34:24.366Z,1018.09
2018-06-23T11:35:24.359Z,1018.09
2018-06-23T11:36:24.348Z,1018.13
2018-06-23T11:37:24.325Z,1018.15
2018-06-23T11:38:24.315Z,1018.16
2018-06-23T11:39:24.305Z,1018.13
2018-06-23T11:40:24.278Z,1018.15
2018-06-23T11:41:24.272Z,1018.15
2018-06-23T11:42:24.254Z,1018.11
2018-06-23T11:43:24.236Z,1018.08
2018-06-23T11:44:24.220Z,1018.06
2018-06-23T11:45:24.218Z,1018.05
2018-06-23T11:46:24.190Z,1018.04
2018-06-23T11:47:24.180Z,1018.04
2018-06-23T11:48:24.167Z,1017.99
2018-06-23T11:49:24.150Z,1017.97
2018-06-23T11:50:24.151Z,1017.96
2018-06-23T11:51:24.124Z,1017.94
2018-06-23T11:52:24.201Z,1017.90
2018-06-23T11:53:24.099Z,1017.89
2018-06-23T11:54:24.077Z,1017.87
2018-06-23T11:55:24.077Z,1017.82
2018-06-23T11:56:24.052Z,1017.88
2018-06-23T11:57:24.037Z,1017.88
2018-06-23T11:58:24.022Z,1017.84
2018-06-23T11:59:24.008Z,1017.85
2018-06-23T12:00:23.997Z,1017.89
2018-06-23T12:01:23.986Z,1017.93
2018-06-23T12:02:23.965Z,1017.89
2018-06-23T12:03:23.949Z,1017.89
2018-06-23T12:04:23.935Z,1017.87
2018-06-23T12:05:23.933Z,1017.86
2018-06-23T12:06:23.914Z,1017.81
2018-06-23T12:07:23.898Z,1017.87
2018-06-23T12:08:23.877Z,1017.89
2018-06-23T12:09:23.862Z,1017.90
2018-06-23T12:10:23.865Z,1017.85
2018-06-23T12:11:23.884Z,1017.88
2018-06-23T12:12:24.340Z,1017.95
2018-06-23T12:13:23.890Z,1017.92
2018-06-23T12:14:23.792Z,1017.90
2018-06-23T12:15:23.777Z,1017.93
2018-06-23T12:16:23.782Z,1017.93
2018-06-23T12:17:23.752Z,1017.87
2018-06-23T12:18:23.736Z,1017.93
2018-06-23T12:19:23.719Z,1017.92
2018-06-23T12:20:23.705Z,1017.94
2018-06-23T12:21:23.694Z,1017.92
2018-06-23T12:22:23.693Z,1017.91
2018-06-23T12:23:23.666Z,1017.90
2018-06-23T12:24:23.648Z,1017.93
2018-06-23T12:25:23.676Z,1017.94
2018-06-23T12:26:23.630Z,1017.96
2018-06-23T12:27:23.649Z,1017.89
2018-06-23T12:28:23.589Z,1017.90
2018-06-23T12:29:23.588Z,1017.88
2018-06-23T12:30:23.587Z,1017.91
2018-06-23T12:31:23.552Z,1017.90
2018-06-23T12:32:23.536Z,1017.89
2018-06-23T12:33:23.544Z,1017.94
2018-06-23T12:34:23.570Z,1017.89
2018-06-23T12:35:23.499Z,1017.88
2018-06-23T12:36:23.487Z,1017.84
2018-06-23T12:37:23.471Z,1017.74
2018-06-23T12:38:23.474Z,1017.71
2018-06-23T12:39:23.444Z,1017.73
2018-06-23T12:40:23.433Z,1017.66
2018-06-23T12:41:23.466Z,1017.68
2018-06-23T12:42:23.405Z,1017.56
2018-06-23T12:43:23.402Z,1017.52
2018-06-23T12:44:23.381Z,1017.51
2018-06-23T12:45:23.365Z,1017.51
2018-06-23T12:46:23.352Z,1017.50
2018-06-23T12:47:23.354Z,1017.56
2018-06-23T12:48:23.395Z,1017.55
2018-06-23T12:49:23.312Z,1017.55
2018-06-23T12:50:23.297Z,1017.56
2018-06-23T12:51:23.316Z,1017.61
2018-06-23T12:52:23.273Z,1017.71
2018-06-23T12:53:23.421Z,1017.66
2018-06-23T12:54:23.262Z,1017.66
2018-06-23T12:55:23.233Z,1017.79
2018-06-23T12:56:23.218Z,1017.70
2018-06-23T12:57:23.261Z,1017.75
2018-06-23T12:58:23.311Z,1017.67
2018-06-23T12:59:23.177Z,1017.68
2018-06-23T13:00:23.168Z,1017.62
2018-06-23T13:01:23.169Z,1017.56
2018-06-23T13:02:23.145Z,1017.61
2018-06-23T13:03:23.158Z,1017.58
2018-06-23T13:04:23.142Z,1017.57
2018-06-23T13:05:23.127Z,1017.55
2018-06-23T13:06:23.106Z,1017.54
2018-06-23T13:07:23.077Z,1017.52
2018-06-23T13:08:23.080Z,1017.53
2018-06-23T13:09:23.068Z,1017.54
2018-06-23T13:10:23.043Z,1017.58
2018-06-23T13:11:23.035Z,1017.54
2018-06-23T13:12:23.019Z,1017.64
2018-06-23T13:13:23.038Z,1017.57
2018-06-23T13:14:23.025Z,1017.56
2018-06-23T13:15:22.979Z,1017.57
2018-06-23T13:16:22.963Z,1017.58
2018-06-23T13:17:22.952Z,1017.52
2018-06-23T13:18:22.949Z,1017.55
2018-06-23T13:19:22.927Z,1017.54
2018-06-23T13:20:22.920Z,1017.64
2018-06-23T13:21:22.904Z,1017.57
2018-06-23T13:22:22.909Z,1017.57
2018-06-23T13:23:22.891Z,1017.58
2018-06-23T13:24:22.871Z,1017.53
2018-06-23T13:25:22.856Z,1017.59
2018-06-23T13:26:22.860Z,1017.56
2018-06-23T13:27:22.884Z,1017.57
2018-06-23T13:28:22.827Z,1017.52
2018-06-23T13:29:22.808Z,1017.76
2018-06-23T13:30:22.800Z,1017.66
2018-06-23T13:31:22.792Z,1017.56
2018-06-23T13:32:22.812Z,1017.65
2018-06-23T13:33:22.769Z,1017.56
2018-06-23T13:34:22.748Z,1017.59
2018-06-23T13:35:22.737Z,1017.54
2018-06-23T13:36:22.724Z,1017.55
2018-06-23T13:37:22.718Z,1017.58
2018-06-23T13:38:22.717Z,1017.53
2018-06-23T13:39:22.701Z,1017.42
2018-06-23T13:40:22.684Z,1017.39
2018-06-23T13:41:22.696Z,1017.34
2018-06-23T13:42:22.665Z,1017.39
2018-06-23T13:43:23.447Z,1017.40
2018-06-23T13:44:22.639Z,1017.40
2018-06-23T13:45:22.642Z,1017.39
2018-06-23T13:46:22.674Z,1017.36
2018-06-23T13:47:22.604Z,1017.36
2018-06-23T13:48:22.952Z,1017.47
2018-06-23T13:49:22.583Z,1017.38
2018-06-23T13:50:22.568Z,1017.33
2018-06-23T13:51:22.583Z,1017.52
2018-06-23T13:52:22.564Z,1017.27
2018-06-23T13:53:22.569Z,1017.37
2018-06-23T13:54:22.606Z,1017.30
2018-06-23T13:55:22.512Z,1017.47
2018-06-23T13:56:22.501Z,1017.53
2018-06-23T13:57:22.494Z,1017.22
2018-06-23T13:58:22.964Z,1017.24
2018-06-23T13:59:23.450Z,1017.26
2018-06-23T14:00:22.458Z,1017.30
2018-06-23T14:01:22.443Z,1017.29
2018-06-23T14:02:22.434Z,1017.18
2018-06-23T14:03:22.499Z,1017.19
2018-06-23T14:04:22.410Z,1017.23
2018-06-23T14:05:22.400Z,1017.33
2018-06-23T14:06:22.389Z,1017.49
2018-06-23T14:07:22.378Z,1017.52
2018-06-23T14:08:22.376Z,1017.36
2018-06-23T14:09:22.371Z,1017.68
2018-06-23T14:10:22.347Z,1017.79
2018-06-23T14:11:22.330Z,1017.70
2018-06-23T14:12:22.322Z,1017.75
2018-06-23T14:13:22.321Z,1017.73
2018-06-23T14:14:22.303Z,1017.84
2018-06-23T14:15:22.290Z,1017.52
2018-06-23T14:16:22.326Z,1017.37
2018-06-23T14:17:22.285Z,1017.20
2018-06-23T14:18:22.277Z,1017.24
2018-06-23T14:19:22.257Z,1017.48
2018-06-23T14:20:22.246Z,1017.73
2018-06-23T14:21:22.237Z,1017.68
2018-06-23T14:22:22.245Z,1017.68
2018-06-23T14:23:22.224Z,1017.69
2018-06-23T14:24:22.204Z,1017.71
2018-06-23T14:25:22.213Z,1017.64
2018-06-23T14:26:22.192Z,1017.44
2018-06-23T14:27:22.190Z,1017.76
2018-06-23T14:28:22.181Z,1017.34
2018-06-23T14:29:22.162Z,1017.71
2018-06-23T14:30:22.158Z,1017.33
2018-06-23T14:31:22.291Z,1017.37
2018-06-23T14:32:22.273Z,1017.38
2018-06-23T14:33:22.138Z,1017.30
2018-06-23T14:34:22.123Z,1017.14
2018-06-23T14:35:22.118Z,1017.10
2018-06-23T14:36:22.100Z,1017.08
2018-06-23T14:37:22.096Z,1017.10
2018-06-23T14:38:22.106Z,1017.15
2018-06-23T14:39:22.076Z,1017.13
2018-06-23T14:40:22.073Z,1017.03
2018-06-23T14:41:22.060Z,1017.04
2018-06-23T14:42:22.049Z,1016.95
2018-06-23T14:43:22.051Z,1016.88
2018-06-23T14:44:22.029Z,1016.92
2018-06-23T14:45:22.020Z,1016.87
2018-06-23T14:46:22.009Z,1016.91
2018-06-23T14:47:22.000Z,1016.89
2018-06-23T14:48:21.999Z,1016.93
2018-06-23T14:49:21.988Z,1016.99
2018-06-23T14:50:21.967Z,1017.39
2018-06-23T14:51:21.955Z,1017.21
2018-06-23T14:52:21.944Z,1017.34
2018-06-23T14:53:21.946Z,1017.18
2018-06-23T14:54:21.922Z,1017.21
2018-06-23T14:55:21.912Z,1017.24
2018-06-23T14:56:21.913Z,1017.27
2018-06-23T14:57:21.899Z,1017.18
2018-06-23T14:58:21.894Z,1017.17
2018-06-23T14:59:21.879Z,1017.13
2018-06-23T15:00:21.862Z,1017.18
2018-06-23T15:01:21.855Z,1017.22
2018-06-23T15:02:21.850Z,1017.15
2018-06-23T15:03:21.852Z,1017.19
2018-06-23T15:04:21.832Z,1017.03
2018-06-23T15:05:21.819Z,1017.28
2018-06-23T15:06:21.813Z,1017.20
2018-06-23T15:07:21.839Z,1017.17
2018-06-23T15:08:21.811Z,1016.96
2018-06-23T15:09:21.793Z,1016.89
2018-06-23T15:10:21.783Z,1016.87
2018-06-23T15:11:21.778Z,1016.90
2018-06-23T15:12:21.768Z,1016.90
2018-06-23T15:13:21.772Z,1016.98
2018-06-23T15:14:21.760Z,1016.89
2018-06-23T15:15:21.741Z,1016.87
2018-06-23T15:16:21.738Z,1016.84
2018-06-23T15:17:21.729Z,1016.82
2018-06-23T15:18:21.729Z,1016.89
2018-06-23T15:19:21.714Z,1016.91
2018-06-23T15:20:21.700Z,1016.81
2018-06-23T15:21:21.692Z,1016.75
2018-06-23T15:22:21.684Z,1016.73
2018-06-23T15:23:21.695Z,1016.76
2018-06-23T15:24:21.664Z,1016.71
2018-06-23T15:25:21.656Z,1016.65
2018-06-23T15:26:21.648Z,1016.65
2018-06-23T15:27:21.635Z,1016.64
2018-06-23T15:28:21.629Z,1016.63
2018-06-23T15:29:21.963Z,1016.60
2018-06-23T15:30:21.605Z,1016.57
2018-06-23T15:31:21.594Z,1016.55
2018-06-23T15:32:21.589Z,1016.57
2018-06-23T15:33:21.574Z,1016.61
2018-06-23T15:34:21.574Z,1016.54
2018-06-23T15:35:21.550Z,1016.57
2018-06-23T15:36:21.548Z,1016.61
2018-06-23T15:37:21.527Z,1016.55
2018-06-23T15:38:21.516Z,1016.55
2018-06-23T15:39:21.517Z,1016.54
2018-06-23T15:40:21.494Z,1016.55
2018-06-23T15:41:21.481Z,1016.53
2018-06-23T15:42:21.466Z,1016.51
2018-06-23T15:43:21.463Z,1016.52
2018-06-23T15:44:21.454Z,1016.52
2018-06-23T15:45:21.431Z,1016.51
2018-06-23T15:46:21.420Z,1016.50
2018-06-23T15:47:21.407Z,1016.55
2018-06-23T15:48:21.396Z,1016.54
2018-06-23T15:49:21.395Z,1016.52
2018-06-23T15:50:21.366Z,1016.53
2018-06-23T15:51:21.352Z,1016.51
2018-06-23T15:52:21.336Z,1016.44
2018-06-23T15:53:21.334Z,1016.46
2018-06-23T15:54:21.325Z,1016.44
2018-06-23T15:55:21.299Z,1016.46
2018-06-23T15:56:21.287Z,1016.43
2018-06-23T15:57:21.271Z,1016.49
2018-06-23T15:58:21.260Z,1016.44
2018-06-23T15:59:21.261Z,1016.44
2018-06-23T16:00:21.237Z,1016.46
2018-06-23T16:01:21.220Z,1016.46
2018-06-23T16:02:21.205Z,1016.39
2018-06-23T16:03:21.191Z,1016.43
2018-06-23T16:04:21.210Z,1016.41
2018-06-23T16:05:21.164Z,1016.39
2018-06-23T16:06:21.150Z,1016.33
2018-06-23T16:07:21.140Z,1016.31
2018-06-23T16:08:21.126Z,1016.53
2018-06-23T16:09:21.128Z,1016.48
2018-06-23T16:10:21.097Z,1016.28
2018-06-23T16:11:21.088Z,1016.36
2018-06-23T16:12:21.073Z,1016.33
2018-06-23T16:13:21.061Z,1016.54
2018-06-23T16:14:21.061Z,1016.33
2018-06-23T16:15:21.041Z,1016.45
2018-06-23T16:16:21.024Z,1016.27
2018-06-23T16:17:21.011Z,1016.24
2018-06-23T16:18:21.001Z,1016.22
2018-06-23T16:19:21.001Z,1016.27
2018-06-23T16:20:20.978Z,1016.20
2018-06-23T16:21:20.967Z,1016.21
2018-06-23T16:22:20.949Z,1016.18
2018-06-23T16:23:20.944Z,1016.18
2018-06-23T16:24:20.943Z,1016.34
2018-06-23T16:25:20.922Z,1016.14
2018-06-23T16:26:20.904Z,1016.16
2018-06-23T16:27:20.891Z,1016.16
2018-06-23T16:28:20.881Z,1016.28
2018-06-23T16:29:20.903Z,1016.20
2018-06-23T16:30:20.935Z,1016.18
2018-06-23T16:31:20.845Z,1016.14
2018-06-23T16:32:20.835Z,1016.17
2018-06-23T16:33:20.821Z,1016.12
2018-06-23T16:34:20.824Z,1016.09
2018-06-23T16:35:21.092Z,1016.17
2018-06-23T16:36:20.787Z,1016.12
2018-06-23T16:37:20.774Z,1016.07
2018-06-23T16:38:20.764Z,1016.12
2018-06-23T16:39:20.765Z,1016.09
2018-06-23T16:40:20.739Z,1016.06
2018-06-23T16:41:20.726Z,1016.10
2018-06-23T16:42:20.715Z,1016.07
2018-06-23T16:43:20.697Z,1016.04
2018-06-23T16:44:20.697Z,1016.06
2018-06-23T16:45:20.680Z,1016.03
2018-06-23T16:46:20.664Z,1016.01
2018-06-23T16:47:20.648Z,1016.04
2018-06-23T16:48:20.633Z,1016.02
2018-06-23T16:49:20.640Z,1016.01
2018-06-23T16:50:20.611Z,1015.98
2018-06-23T16:51:20.601Z,1015.95
2018-06-23T16:52:20.584Z,1015.92
2018-06-23T16:53:20.570Z,1015.95
2018-06-23T16:54:20.572Z,1015.92
2018-06-23T16:55:20.545Z,1015.90
2018-06-23T16:56:20.532Z,1015.91
2018-06-23T16:57:20.520Z,1015.89
2018-06-23T16:58:20.505Z,1015.91
2018-06-23T16:59:20.508Z,1015.91
2018-06-23T17:00:20.480Z,1015.91
2018-06-23T17:01:20.466Z,1015.91
2018-06-23T17:02:20.453Z,1015.89
2018-06-23T17:03:20.438Z,1015.92
2018-06-23T17:04:20.483Z,1015.93
2018-06-23T17:05:20.412Z,1015.91
2018-06-23T17:06:20.404Z,1015.96
2018-06-23T17:07:20.389Z,1016.26
2018-06-23T17:08:20.372Z,1016.29
2018-06-23T17:09:20.373Z,1016.27
2018-06-23T17:10:20.348Z,1016.33
2018-06-23T17:11:20.346Z,1016.32
2018-06-23T17:12:20.320Z,1016.31
2018-06-23T17:13:20.307Z,1016.33
2018-06-23T17:14:20.315Z,1016.33
2018-06-23T17:15:20.322Z,1016.25
2018-06-23T17:16:20.276Z,1016.28
2018-06-23T17:17:20.265Z,1016.25
2018-06-23T17:18:20.251Z,1016.20
2018-06-23T17:19:20.254Z,1016.22
2018-06-23T17:20:20.236Z,1016.20
2018-06-23T17:21:20.227Z,1016.13
2018-06-23T17:22:20.218Z,1016.09
2018-06-23T17:23:20.208Z,1016.09
2018-06-23T17:24:20.210Z,1016.01
2018-06-23T17:25:20.192Z,1015.92
2018-06-23T17:26:20.182Z,1015.90
2018-06-23T17:27:20.176Z,1015.91
2018-06-23T17:28:20.175Z,1015.90
2018-06-23T17:29:20.170Z,1015.88
2018-06-23T17:30:20.153Z,1015.78
2018-06-23T17:31:20.137Z,1015.84
2018-06-23T17:32:20.135Z,1015.77
2018-06-23T17:33:20.124Z,1015.72
2018-06-23T17:34:20.130Z,1015.69
2018-06-23T17:35:20.107Z,1015.72
2018-06-23T17:36:20.103Z,1015.69
2018-06-23T17:37:20.086Z,1015.76
2018-06-23T17:38:20.103Z,1015.85
2018-06-23T17:39:20.093Z,1015.87
2018-06-23T17:40:20.066Z,1015.84
2018-06-23T17:41:20.052Z,1015.82
2018-06-23T17:42:20.042Z,1015.84
2018-06-23T17:43:20.027Z,1015.82
2018-06-23T17:44:20.032Z,1015.82
2018-06-23T17:45:20.013Z,1015.82
2018-06-23T17:46:20.004Z,1015.77
2018-06-23T17:47:19.995Z,1015.79
2018-06-23T17:48:19.994Z,1015.78
2018-06-23T17:49:19.990Z,1015.80
2018-06-23T17:50:19.969Z,1015.75
2018-06-23T17:51:19.961Z,1015.64
2018-06-23T17:52:19.955Z,1015.70
2018-06-23T17:53:19.948Z,1015.67
2018-06-23T17:54:19.945Z,1015.74
2018-06-23T17:55:19.925Z,1015.70
2018-06-23T17:56:19.918Z,1015.68
2018-06-23T17:57:19.975Z,1015.74
2018-06-23T17:58:19.903Z,1015.73
2018-06-23T17:59:19.905Z,1015.73
2018-06-23T18:00:19.885Z,1015.70
2018-06-23T18:01:19.875Z,1015.68
2018-06-23T18:02:19.863Z,1015.64
2018-06-23T18:03:19.863Z,1015.69
2018-06-23T18:04:19.880Z,1015.50
2018-06-23T18:05:19.845Z,1015.47
2018-06-23T18:06:19.853Z,1015.40
2018-06-23T18:07:19.823Z,1015.48
2018-06-23T18:08:19.808Z,1015.41
2018-06-23T18:09:19.816Z,1015.43
2018-06-23T18:10:19.794Z,1015.39
2018-06-23T18:11:19.782Z,1015.40
2018-06-23T18:12:19.842Z,1015.36
2018-06-23T18:13:19.766Z,1015.38
2018-06-23T18:14:19.769Z,1015.35
2018-06-23T18:15:19.746Z,1015.36
2018-06-23T18:16:19.733Z,1015.35
2018-06-23T18:17:19.723Z,1015.38
2018-06-23T18:18:20.057Z,1015.46
2018-06-23T18:19:19.743Z,1015.41
2018-06-23T18:20:19.780Z,1015.39
2018-06-23T18:21:19.676Z,1015.44
2018-06-23T18:22:19.666Z,1015.41
2018-06-23T18:23:19.654Z,1015.39
2018-06-23T18:24:19.641Z,1015.40
2018-06-23T18:25:19.704Z,1015.40
2018-06-23T18:26:19.621Z,1015.37
2018-06-23T18:27:19.606Z,1015.37
2018-06-23T18:28:19.595Z,1015.38
2018-06-23T18:29:19.579Z,1015.36
2018-06-23T18:30:19.581Z,1015.34
2018-06-23T18:31:19.558Z,1015.35
2018-06-23T18:32:19.544Z,1015.37
2018-06-23T18:33:19.534Z,1015.34
2018-06-23T18:34:19.517Z,1015.35
2018-06-23T18:35:19.519Z,1015.33
2018-06-23T18:36:19.494Z,1015.33
2018-06-23T18:37:19.486Z,1015.35
2018-06-23T18:38:19.494Z,1015.33
2018-06-23T18:39:20.451Z,1015.35
2018-06-23T18:40:19.455Z,1015.34
2018-06-23T18:41:19.427Z,1015.32
2018-06-23T18:42:19.416Z,1015.31
2018-06-23T18:43:19.410Z,1015.32
2018-06-23T18:44:19.390Z,1015.28
2018-06-23T18:45:19.393Z,1015.27
2018-06-23T18:46:19.364Z,1015.27
2018-06-23T18:47:19.353Z,1015.26
2018-06-23T18:48:19.339Z,1015.24
2018-06-23T18:49:19.322Z,1015.23
2018-06-23T18:50:19.323Z,1015.28
2018-06-23T18:51:19.305Z,1015.28
2018-06-23T18:52:19.281Z,1015.27
2018-06-23T18:53:19.269Z,1015.26
2018-06-23T18:54:19.256Z,1015.30
2018-06-23T18:55:19.254Z,1015.28
2018-06-23T18:56:19.234Z,1015.28
2018-06-23T18:57:19.310Z,1015.28
2018-06-23T18:58:19.203Z,1015.27
2018-06-23T18:59:19.191Z,1015.29
2018-06-23T19:00:19.192Z,1015.25
2018-06-23T19:01:19.160Z,1015.21
2018-06-23T19:02:19.145Z,1015.22
2018-06-23T19:03:19.136Z,1015.22
2018-06-23T19:04:19.116Z,1015.20
2018-06-23T19:05:19.173Z,1015.17
2018-06-23T19:06:19.090Z,1015.22
2018-06-23T19:07:19.079Z,1015.22
2018-06-23T19:08:19.059Z,1015.21
2018-06-23T19:09:19.161Z,1015.22
2018-06-23T19:10:19.041Z,1015.24
2018-06-23T19:11:19.016Z,1015.21
2018-06-23T19:12:19.003Z,1015.20
2018-06-23T19:13:18.998Z,1015.19
2018-06-23T19:14:18.975Z,1015.15
2018-06-23T19:15:18.974Z,1015.13
2018-06-23T19:16:18.946Z,1015.12
2018-06-23T19:17:19.005Z,1015.12
2018-06-23T19:18:18.914Z,1015.12
2018-06-23T19:19:18.902Z,1015.14
2018-06-23T19:20:18.965Z,1015.13
2018-06-23T19:21:18.873Z,1015.14
2018-06-23T19:22:18.862Z,1015.12
2018-06-23T19:23:18.843Z,1015.12
2018-06-23T19:24:18.837Z,1015.13
2018-06-23T19:25:18.825Z,1015.12
2018-06-23T19:26:18.800Z,1015.16
2018-06-23T19:27:18.785Z,1015.16
2018-06-23T19:28:18.768Z,1015.13
2018-06-23T19:29:18.756Z,1015.16
2018-06-23T19:30:18.760Z,1015.14
2018-06-23T19:31:18.731Z,1015.14
2018-06-23T19:32:18.713Z,1015.17
2018-06-23T19:33:18.696Z,1015.20
2018-06-23T19:34:18.690Z,1015.15
2018-06-23T19:35:18.681Z,1015.14
2018-06-23T19:36:18.652Z,1015.16
2018-06-23T19:37:18.631Z,1015.15
2018-06-23T19:38:18.637Z,1015.14
2018-06-23T19:39:18.606Z,1015.10
2018-06-23T19:40:18.617Z,1015.15
2018-06-23T19:41:18.578Z,1015.14
2018-06-23T19:42:18.558Z,1015.12
2018-06-23T19:43:18.547Z,1015.13
2018-06-23T19:44:18.594Z,1015.13
2018-06-23T19:45:18.533Z,1015.16
2018-06-23T19:46:18.502Z,1015.16
2018-06-23T19:47:18.484Z,1015.14
2018-06-23T19:48:18.469Z,1015.16
2018-06-23T19:49:18.459Z,1015.16
2018-06-23T19:50:18.448Z,1015.19
2018-06-23T19:51:18.426Z,1015.18
2018-06-23T19:52:18.407Z,1015.20
2018-06-23T19:53:18.395Z,1015.23
2018-06-23T19:54:18.377Z,1015.25
2018-06-23T19:55:18.374Z,1015.26
2018-06-23T19:56:18.353Z,1015.30
2018-06-23T19:57:18.325Z,1015.31
2018-06-23T19:58:18.311Z,1015.33
2018-06-23T19:59:18.298Z,1015.28
2018-06-23T20:00:18.293Z,1015.27
2018-06-23T20:01:18.268Z,1015.30
2018-06-23T20:02:18.252Z,1015.31
2018-06-23T20:03:18.237Z,1015.29
2018-06-23T20:04:18.241Z,1015.31
2018-06-23T20:05:18.219Z,1015.30
2018-06-23T20:06:18.191Z,1015.34
2018-06-23T20:07:18.175Z,1015.29
2018-06-23T20:08:18.221Z,1015.28
2018-06-23T20:09:18.150Z,1015.33
2018-06-23T20:10:18.138Z,1015.33
2018-06-23T20:11:18.113Z,1015.34
2018-06-23T20:12:18.095Z,1015.33
2018-06-23T20:13:18.083Z,1015.33
2018-06-23T20:14:18.063Z,1015.34
2018-06-23T20:15:18.055Z,1015.40
2018-06-23T20:16:18.030Z,1015.37
2018-06-23T20:17:18.013Z,1015.38
2018-06-23T20:18:17.998Z,1015.40
2018-06-23T20:19:17.989Z,1015.37
2018-06-23T20:20:17.986Z,1015.38
2018-06-23T20:21:17.951Z,1015.39
2018-06-23T20:22:18.004Z,1015.40
2018-06-23T20:23:17.917Z,1015.41
2018-06-23T20:24:17.904Z,1015.39
2018-06-23T20:25:17.898Z,1015.40
2018-06-23T20:26:17.867Z,1015.42
2018-06-23T20:27:17.853Z,1015.42
2018-06-23T20:28:17.839Z,1015.42
2018-06-23T20:29:17.825Z,1015.43
2018-06-23T20:30:17.815Z,1015.43
2018-06-23T20:31:17.787Z,1015.44
2018-06-23T20:32:17.771Z,1015.47
2018-06-23T20:33:17.758Z,1015.44
2018-06-23T20:34:17.740Z,1015.44
2018-06-23T20:35:17.738Z,1015.43